Metar Aviation Weather Data        EIME Baldonnel Military Airfield
Temperature
17°C Temperature
11°C Dewpoint
68% Humidity



Wind
24 KM/H
15 MPH
7 M/S
13 KTS



260°
W
Current Conditions

Partly Cloudy Partly Cloudy
Pressure 1020 (hPa) - 30.12 (inHg)
Visibility 30 (mile) - 48 (km)
Airport
Airport-code EIME

Location: Baldonnel Military Airfield
Distance: 62 (km)

Metar:
METAR EIME 231130Z 26013KT 9999 FEW022 SCT052 17/11 Q1020

Time: 23-09-2021 12:30 IST